Time;durP1;ratioP1;P1;durP2;ratioP2;P2;SDS_P1;SDS_P2;PMS_P1;PMS_P2;Temp;Humidity;BMP_temperature;BMP_pressure;BME280_temperature;BME280_humidity;BME280_pressure;Samples;Min_cycle;Max_cycle;Signal;HPM_P1;HPM_P2
2022/09/05 00:02:02;;;;;;;2.88;2.63;;;19.30;98.20;;;;;;5057315;28;20099;-75
2022/09/05 00:04:37;;;;;;;5.78;3.20;;;19.30;98.10;;;;;;5056027;28;20613;-75
2022/09/05 00:07:30;;;;;;;6.38;3.10;;;19.30;98.10;;;;;;5056926;28;20017;-76
2022/09/05 00:10:10;;;;;;;4.10;3.70;;;19.30;98.10;;;;;;5055670;28;20033;-75
2022/09/05 00:12:37;;;;;;;3.85;2.72;;;19.40;98.20;;;;;;5056672;28;20044;-76
2022/09/05 00:15:11;;;;;;;4.03;3.50;;;19.40;98.30;;;;;;5056825;28;20029;-76
2022/09/05 00:18:12;;;;;;;5.18;3.65;;;19.40;98.30;;;;;;5056449;28;20028;-76
2022/09/05 00:20:55;;;;;;;4.63;3.67;;;19.40;98.40;;;;;;5056448;28;20048;-74
2022/09/05 00:23:47;;;;;;;3.70;3.30;;;19.40;98.50;;;;;;5056276;28;20082;-77
2022/09/05 00:26:27;;;;;;;8.75;4.30;;;19.40;98.40;;;;;;5045929;28;20033;-75
2022/09/05 00:29:11;;;;;;;4.80;4.30;;;19.40;98.40;;;;;;5056306;28;20024;-76
2022/09/05 00:31:54;;;;;;;6.00;3.75;;;19.40;98.40;;;;;;5056268;28;20083;-75
2022/09/05 00:35:00;;;;;;;14.32;4.72;;;19.30;98.50;;;;;;5056548;28;20090;-76
2022/09/05 00:37:47;;;;;;;6.28;3.88;;;19.30;98.70;;;;;;5056754;28;20025;-75
2022/09/05 00:40:19;;;;;;;6.20;4.28;;;19.30;98.90;;;;;;5055991;28;20029;-76
2022/09/05 00:42:47;;;;;;;4.93;4.53;;;19.30;98.90;;;;;;5056017;28;20059;-75
2022/09/05 00:45:23;;;;;;;4.93;4.30;;;19.30;99.10;;;;;;5055393;28;20037;-75
2022/09/05 00:48:04;;;;;;;5.05;4.30;;;19.30;99.20;;;;;;5055523;28;20028;-77
2022/09/05 00:50:43;;;;;;;4.85;4.22;;;19.30;99.30;;;;;;5056094;28;20033;-76
2022/09/05 00:53:19;;;;;;;6.20;5.03;;;19.30;99.20;;;;;;5055654;28;20039;-76
2022/09/05 00:56:18;;;;;;;5.10;4.60;;;19.30;99.20;;;;;;5055930;28;20080;-75
2022/09/05 00:59:08;;;;;;;5.88;5.30;;;19.30;99.20;;;;;;5055282;28;20021;-76
2022/09/05 01:01:54;;;;;;;6.57;5.05;;;19.20;99.10;;;;;;5055997;28;20040;-75
2022/09/05 01:04:58;;;;;;;4.95;4.55;;;19.20;99.20;;;;;;5055474;28;20040;-74
2022/09/05 01:08:01;;;;;;;6.68;5.82;;;19.20;99.40;;;;;;5055149;28;20396;-76
2022/09/05 01:10:50;;;;;;;7.35;5.45;;;19.20;99.50;;;;;;5055715;28;20021;-76
2022/09/05 01:13:22;;;;;;;6.65;6.05;;;19.20;99.60;;;;;;5055213;28;20025;-75
2022/09/05 01:16:18;;;;;;;6.18;5.65;;;19.20;99.70;;;;;;5055223;28;20053;-76
2022/09/05 01:18:46;;;;;;;9.38;6.55;;;19.10;99.90;;;;;;5055546;28;20021;-75
2022/09/05 01:21:48;;;;;;;6.63;6.07;;;19.10;99.90;;;;;;5054488;28;20068;-75
2022/09/05 01:24:40;;;;;;;7.00;6.40;;;19.10;99.90;;;;;;5053566;28;20049;-75
2022/09/05 01:27:51;;;;;;;7.00;6.30;;;19.10;99.90;;;;;;5054816;28;20104;-75
2022/09/05 01:30:22;;;;;;;7.03;6.25;;;19.10;99.90;;;;;;5051849;28;20033;-76
2022/09/05 01:33:21;;;;;;;6.53;6.00;;;19.00;99.90;;;;;;5055323;28;20043;-76
2022/09/05 01:35:52;;;;;;;6.80;6.20;;;19.00;99.90;;;;;;5054422;28;20032;-75
2022/09/05 01:38:41;;;;;;;10.05;7.25;;;19.00;99.90;;;;;;5055126;28;20140;-76
2022/09/05 01:41:09;;;;;;;7.65;7.05;;;18.90;99.90;;;;;;5054324;28;20033;-76
2022/09/05 01:43:49;;;;;;;9.18;7.15;;;18.90;99.90;;;;;;5054700;28;20037;-75
2022/09/05 01:46:48;;;;;;;8.57;7.83;;;18.80;99.90;;;;;;5055215;28;20025;-76
2022/09/05 01:49:34;;;;;;;8.38;7.57;;;18.80;99.90;;;;;;5054497;28;20036;-76
2022/09/05 01:52:27;;;;;;;7.97;7.25;;;18.80;99.90;;;;;;5054923;28;20036;-76
2022/09/05 01:55:05;;;;;;;9.40;8.60;;;18.80;99.90;;;;;;5054255;28;20064;-76
2022/09/05 01:57:50;;;;;;;9.63;8.65;;;18.80;99.90;;;;;;5054450;28;20033;-76
2022/09/05 02:00:34;;;;;;;9.20;7.45;;;18.80;99.90;;;;;;5055065;28;20023;-75
2022/09/05 02:03:21;;;;;;;10.18;8.27;;;18.70;99.90;;;;;;5054527;28;20037;-76
2022/09/05 02:06:07;;;;;;;11.23;7.75;;;18.80;99.90;;;;;;5054468;28;20104;-75
2022/09/05 02:08:44;;;;;;;12.30;8.10;;;18.70;99.90;;;;;;5054746;28;20032;-76
2022/09/05 02:11:11;;;;;;;12.13;8.82;;;18.70;99.90;;;;;;5054174;28;20057;-74
2022/09/05 02:13:37;;;;;;;9.73;8.80;;;18.70;99.90;;;;;;5054718;28;20025;-75
2022/09/05 02:16:02;;;;;;;10.05;9.05;;;18.70;99.90;;;;;;5053962;28;20024;-74
2022/09/05 02:18:57;;;;;;;11.88;9.25;;;18.70;99.90;;;;;;5054125;28;20460;-77
2022/09/05 02:21:32;;;;;;;8.98;8.13;;;18.70;99.90;;;;;;5044841;28;20116;-77
2022/09/05 02:24:20;;;;;;;10.30;8.88;;;18.70;99.90;;;;;;5053961;28;20036;-77
2022/09/05 02:27:04;;;;;;;10.35;9.35;;;18.70;99.90;;;;;;5054520;28;20049;-77
2022/09/05 02:29:56;;;;;;;10.13;9.00;;;18.70;99.90;;;;;;5054909;28;20028;-77
2022/09/05 02:32:38;;;;;;;9.95;9.05;;;18.60;99.90;;;;;;5054467;28;20480;-75
2022/09/05 02:35:10;;;;;;;11.00;9.40;;;18.60;99.90;;;;;;5054468;28;20028;-76
2022/09/05 02:37:58;;;;;;;9.73;8.75;;;18.60;99.90;;;;;;5054327;28;20025;-75
2022/09/05 02:40:56;;;;;;;14.65;9.98;;;18.50;99.90;;;;;;5053737;28;20378;-77
2022/09/05 02:43:44;;;;;;;12.50;10.35;;;18.50;99.90;;;;;;5053828;28;20033;-75
2022/09/05 02:46:26;;;;;;;11.55;10.48;;;18.50;99.90;;;;;;5053164;28;20033;-76
2022/09/05 02:49:06;;;;;;;11.20;10.10;;;18.50;99.90;;;;;;5053958;28;20105;-77
2022/09/05 02:51:37;;;;;;;13.10;10.77;;;18.50;99.90;;;;;;5053224;28;20495;-76
2022/09/05 02:54:12;;;;;;;12.00;10.80;;;18.40;99.90;;;;;;5053330;28;20032;-77
2022/09/05 02:57:04;;;;;;;10.88;9.77;;;18.40;99.90;;;;;;5053654;28;20033;-77
2022/09/05 02:59:52;;;;;;;12.18;11.00;;;18.40;99.90;;;;;;5053238;28;20029;-76
2022/09/05 03:02:27;;;;;;;11.50;10.50;;;18.40;99.90;;;;;;5053789;28;20056;-77
2022/09/05 03:05:00;;;;;;;12.75;11.43;;;18.60;99.90;;;;;;5053730;28;20044;-76
2022/09/05 03:08:19;;;;;;;12.27;10.77;;;18.30;99.90;;;;;;5052664;28;20419;-76
2022/09/05 03:11:07;;;;;;;15.43;10.98;;;18.30;99.90;;;;;;5011611;28;20029;-76
2022/09/05 03:14:09;;;;;;;12.27;10.95;;;18.20;99.90;;;;;;5011041;28;20553;-76
2022/09/05 03:16:53;;;;;;;12.85;11.10;;;18.20;99.90;;;;;;5047607;28;20117;-76
2022/09/05 03:19:43;;;;;;;16.58;12.38;;;18.20;99.90;;;;;;5053168;28;20029;-77
2022/09/05 03:22:34;;;;;;;13.15;11.95;;;18.10;99.90;;;;;;5053210;28;20045;-76
2022/09/05 03:25:18;;;;;;;;;;;18.10;99.90;;;;;;5053900;28;20041;-76
2022/09/05 03:28:02;;;;;;;14.18;12.68;;;18.10;99.90;;;;;;5052748;28;20348;-77
2022/09/05 03:30:55;;;;;;;15.43;12.05;;;18.10;99.90;;;;;;5053755;28;20041;-77
2022/09/05 03:33:53;;;;;;;12.73;11.48;;;18.00;99.90;;;;;;5053175;28;20099;-77
2022/09/05 03:36:51;;;;;;;14.95;12.23;;;18.00;99.90;;;;;;5053399;28;20405;-76
2022/09/05 03:39:59;;;;;;;17.33;12.70;;;18.00;99.90;;;;;;5053498;28;20028;-76
2022/09/05 03:42:57;;;;;;;13.52;12.20;;;17.90;99.90;;;;;;5052964;28;20431;-76
2022/09/05 03:45:47;;;;;;;12.68;11.48;;;17.90;99.90;;;;;;5053702;28;20083;-74
2022/09/05 03:48:39;;;;;;;13.10;11.63;;;17.90;99.90;;;;;;5053290;28;20087;-77
2022/09/05 03:51:20;;;;;;;13.93;12.52;;;17.90;99.90;;;;;;5060328;28;20036;-75
2022/09/05 03:54:22;;;;;;;13.68;12.43;;;17.90;99.90;;;;;;5061772;28;20025;-77
2022/09/05 03:57:00;;;;;;;13.43;11.80;;;17.90;99.90;;;;;;5060612;28;20025;-76
2022/09/05 03:59:56;;;;;;;12.82;11.73;;;17.90;99.90;;;;;;5065978;28;20012;-77
2022/09/05 04:02:27;;;;;;;13.07;11.82;;;17.90;99.90;;;;;;5065805;28;20036;-77
2022/09/05 04:04:58;;;;;;;;;;;17.90;99.90;;;;;;5064217;28;20106;-77
2022/09/05 04:07:32;;;;;;;14.50;12.60;;;17.90;99.90;;;;;;5053202;28;20344;-76
2022/09/05 04:10:17;;;;;;;14.55;13.05;;;17.90;99.90;;;;;;5052485;28;20028;-76
2022/09/05 04:12:52;;;;;;;13.65;11.77;;;17.80;99.90;;;;;;5045396;28;20431;-75
2022/09/05 04:15:39;;;;;;;14.73;13.23;;;17.80;99.90;;;;;;5053194;28;20032;-75
2022/09/05 04:18:18;;;;;;;14.07;11.07;;;17.80;99.90;;;;;;5052894;28;20079;-75
2022/09/05 04:21:26;;;;;;;16.25;12.48;;;17.80;99.90;;;;;;5052959;28;20044;-75
2022/09/05 04:23:51;;;;;;;14.88;12.23;;;17.70;99.90;;;;;;5055712;28;20423;-76
2022/09/05 04:26:35;;;;;;;13.48;11.98;;;17.70;99.90;;;;;;5056458;28;20473;-76
2022/09/05 04:29:13;;;;;;;13.40;12.20;;;17.70;99.90;;;;;;5056633;28;20029;-76
2022/09/05 04:31:54;;;;;;;13.85;12.43;;;17.70;99.90;;;;;;5055834;28;20049;-76
2022/09/05 04:34:25;;;;;;;29.45;14.13;;;17.70;99.90;;;;;;5056258;28;20080;-76
2022/09/05 04:37:03;;;;;;;14.10;12.73;;;17.70;99.90;;;;;;5055744;28;20036;-76
2022/09/05 04:39:30;;;;;;;16.77;13.77;;;17.70;99.90;;;;;;5055972;28;20037;-75
2022/09/05 04:42:16;;;;;;;17.92;13.25;;;17.70;99.90;;;;;;5056013;28;20514;-75
2022/09/05 04:44:49;;;;;;;15.15;12.55;;;17.70;99.90;;;;;;5055530;28;20033;-75
2022/09/05 04:47:21;;;;;;;16.55;12.95;;;17.60;99.90;;;;;;5056271;28;20028;-77
2022/09/05 04:49:55;;;;;;;20.38;13.40;;;17.60;99.90;;;;;;5056114;28;20104;-76
2022/09/05 04:52:39;;;;;;;14.68;13.15;;;17.70;99.90;;;;;;5055128;28;20021;-76
2022/09/05 04:55:33;;;;;;;14.57;13.18;;;17.60;99.90;;;;;;5056231;28;20021;-77
2022/09/05 04:58:06;;;;;;;15.07;13.20;;;17.60;99.90;;;;;;5055185;28;20499;-74
2022/09/05 05:00:56;;;;;;;22.25;14.55;;;17.60;99.90;;;;;;5055291;28;20021;-77
2022/09/05 05:03:25;;;;;;;14.32;13.00;;;17.60;99.90;;;;;;5055795;28;20465;-77
2022/09/05 05:05:55;;;;;;;17.08;14.20;;;17.60;99.90;;;;;;5055077;28;20036;-76
2022/09/05 05:08:29;;;;;;;14.95;13.48;;;17.60;99.90;;;;;;5055607;28;20373;-77
2022/09/05 05:10:59;;;;;;;15.73;13.23;;;17.60;99.90;;;;;;5055784;28;20052;-75
2022/09/05 05:13:45;;;;;;;16.13;12.95;;;17.60;99.90;;;;;;5055447;28;20036;-76
2022/09/05 05:16:26;;;;;;;17.55;14.30;;;17.60;99.90;;;;;;5055467;28;20391;-76
2022/09/05 05:18:58;;;;;;;15.55;13.45;;;17.60;99.90;;;;;;5055145;28;20021;-76
2022/09/05 05:21:29;;;;;;;15.93;14.52;;;17.50;99.90;;;;;;5055073;28;20053;-76
2022/09/05 05:24:05;;;;;;;16.50;14.00;;;17.60;99.90;;;;;;5055152;28;20115;-75
2022/09/05 05:27:08;;;;;;;15.27;13.65;;;17.60;99.90;;;;;;5054925;28;20024;-76
2022/09/05 05:29:52;;;;;;;17.08;14.77;;;17.60;99.90;;;;;;5055429;28;20108;-75
2022/09/05 05:32:24;;;;;;;16.35;14.75;;;17.60;99.90;;;;;;5054900;28;20032;-75
2022/09/05 05:34:59;;;;;;;16.08;14.40;;;17.70;99.90;;;;;;5054325;28;20025;-75
2022/09/05 05:37:33;;;;;;;17.40;15.65;;;17.70;99.90;;;;;;5055225;28;20033;-76
2022/09/05 05:40:10;;;;;;;17.40;15.10;;;17.80;99.90;;;;;;5054878;28;20024;-76
2022/09/05 05:42:38;;;;;;;19.25;14.70;;;17.80;99.90;;;;;;5054866;28;20035;-75
2022/09/05 05:45:15;;;;;;;22.73;15.82;;;17.80;99.90;;;;;;5054853;28;20044;-75
2022/09/05 05:47:44;;;;;;;16.13;14.15;;;17.80;99.90;;;;;;5054944;28;20488;-76
2022/09/05 05:50:48;;;;;;;16.90;15.10;;;17.90;99.90;;;;;;5054991;28;20061;-75
2022/09/05 05:53:32;;;;;;;22.10;15.60;;;17.90;99.90;;;;;;5055136;28;20029;-75
2022/09/05 05:56:20;;;;;;;24.50;15.52;;;17.90;99.90;;;;;;5053993;28;20104;-75
2022/09/05 05:59:07;;;;;;;16.58;14.52;;;18.00;99.90;;;;;;5055166;28;20021;-76
2022/09/05 06:01:36;;;;;;;16.77;15.02;;;18.10;99.90;;;;;;5053960;28;20025;-76
2022/09/05 06:04:51;;;;;;;21.07;14.97;;;18.20;99.90;;;;;;5054281;28;20040;-76
2022/09/05 06:07:43;;;;;;;19.00;14.50;;;18.20;99.90;;;;;;5054517;28;20355;-77
2022/09/05 06:10:49;;;;;;;23.30;14.82;;;18.20;99.90;;;;;;5053717;28;20040;-75
2022/09/05 06:13:44;;;;;;;14.52;13.00;;;18.30;99.90;;;;;;5035589;28;20477;-76
2022/09/05 06:16:12;;;;;;;19.65;14.48;;;18.40;99.90;;;;;;5053887;28;20029;-76
2022/09/05 06:19:29;;;;;;;17.67;13.48;;;18.50;99.90;;;;;;5054583;28;20059;-76
2022/09/05 06:22:34;;;;;;;16.75;14.25;;;18.60;99.90;;;;;;5054132;28;20118;-77
2022/09/05 06:25:18;;;;;;;22.42;14.13;;;18.70;99.90;;;;;;5039629;28;20064;-76
2022/09/05 06:27:47;;;;;;;16.92;15.18;;;18.90;99.90;;;;;;5054438;28;20032;-77
2022/09/05 06:30:19;;;;;;;15.70;14.07;;;19.00;99.90;;;;;;5053999;28;20098;-77
2022/09/05 06:32:50;;;;;;;16.20;13.70;;;19.10;99.90;;;;;;5054377;28;20159;-76
2022/09/05 06:36:02;;;;;;;18.95;14.40;;;19.20;99.90;;;;;;5054664;28;20025;-76
2022/09/05 06:38:51;;;;;;;16.65;14.75;;;19.30;99.90;;;;;;5034326;28;20075;-77
2022/09/05 06:41:40;;;;;;;16.20;14.45;;;19.50;99.90;;;;;;5054270;28;20033;-77
2022/09/05 06:44:31;;;;;;;15.90;12.98;;;19.60;99.90;;;;;;5033534;28;20382;-77
2022/09/05 06:47:05;;;;;;;17.17;15.38;;;19.60;99.90;;;;;;5054724;28;20029;-75
2022/09/05 06:49:42;;;;;;;19.40;15.30;;;19.70;99.90;;;;;;5054170;28;20437;-76
2022/09/05 06:52:23;;;;;;;17.80;14.27;;;19.70;99.90;;;;;;5053236;28;20090;-77
2022/09/05 06:55:07;;;;;;;;;;;19.70;99.90;;;;;;5054391;28;20067;-77
2022/09/05 06:58:02;;;;;;;17.42;13.68;;;19.70;99.90;;;;;;5053228;28;19911;-76
2022/09/05 07:00:33;;;;;;;16.40;14.02;;;19.70;99.90;;;;;;5053436;28;20113;-76
2022/09/05 07:03:20;;;;;;;20.27;14.43;;;19.70;99.90;;;;;;5053921;28;20021;-77
2022/09/05 07:05:59;;;;;;;14.73;13.23;;;19.80;99.90;;;;;;5052927;28;20025;-77
2022/09/05 07:08:38;;;;;;;17.25;15.55;;;19.80;99.90;;;;;;5053880;28;20554;-77
2022/09/05 07:11:07;;;;;;;18.50;15.05;;;19.80;99.90;;;;;;5053649;28;20032;-75
2022/09/05 07:13:54;;;;;;;18.60;14.50;;;19.90;99.90;;;;;;5053272;28;20049;-78
2022/09/05 07:16:49;;;;;;;21.75;16.00;;;20.00;99.90;;;;;;5053458;28;20489;-75
2022/09/05 07:19:27;;;;;;;18.10;13.88;;;20.00;99.90;;;;;;5052640;28;20043;-76
2022/09/05 07:22:23;;;;;;;19.17;15.25;;;20.10;99.90;;;;;;5053397;28;20051;-75
2022/09/05 07:24:51;;;;;;;17.88;14.23;;;20.20;99.90;;;;;;5053932;28;20040;-75
2022/09/05 07:27:46;;;;;;;24.13;15.02;;;20.20;99.90;;;;;;5052955;28;20079;-76
2022/09/05 07:30:16;;;;;;;19.38;13.63;;;20.40;99.90;;;;;;5045860;28;20116;-75
2022/09/05 07:32:48;;;;;;;;;;;20.40;99.90;;;;;;5062851;28;20040;-74
2022/09/05 07:35:33;;;;;;;22.40;12.93;;;20.60;99.90;;;;;;5061187;28;19905;-75
2022/09/05 07:38:24;;;;;;;15.32;13.40;;;20.70;99.90;;;;;;5062351;28;20051;-75
2022/09/05 07:41:25;;;;;;;16.50;12.07;;;20.90;99.90;;;;;;5060501;28;20045;-75
2022/09/05 07:43:56;;;;;;;15.27;12.20;;;21.10;99.90;;;;;;5055117;28;20041;-76
2022/09/05 07:46:26;;;;;;;14.35;9.85;;;21.30;99.90;;;;;;5062227;28;20043;-76
2022/09/05 07:49:13;;;;;;;17.60;11.55;;;21.40;99.90;;;;;;5061083;28;20017;-75
2022/09/05 07:51:51;;;;;;;21.88;12.85;;;21.60;99.90;;;;;;5060219;28;20029;-77
2022/09/05 07:54:26;;;;;;;15.15;11.27;;;21.80;99.90;;;;;;5059464;28;20044;-77
2022/09/05 07:56:58;;;;;;;15.63;11.10;;;22.00;99.90;;;;;;5065191;28;20021;-76
2022/09/05 07:59:27;;;;;;;10.95;9.95;;;22.20;99.90;;;;;;5067075;28;20029;-77
2022/09/05 08:01:54;;;;;;;31.85;9.30;;;22.40;99.90;;;;;;5056424;28;20029;-76
2022/09/05 08:04:24;;;;;;;20.60;7.95;;;22.60;99.90;;;;;;5056823;28;20120;-76
2022/09/05 08:06:53;;;;;;;16.27;7.40;;;22.80;99.30;;;;;;5056825;28;20100;-76
2022/09/05 08:09:35;;;;;;;9.73;5.95;;;22.90;98.80;;;;;;5056537;28;20037;-76
2022/09/05 08:12:10;;;;;;;13.27;6.30;;;22.90;98.60;;;;;;5056508;28;20040;-77
2022/09/05 08:14:54;;;;;;;13.75;5.70;;;23.00;98.60;;;;;;5056103;28;20033;-76
2022/09/05 08:17:23;;;;;;;8.77;5.78;;;22.90;98.60;;;;;;5057394;28;20032;-76
2022/09/05 08:20:07;;;;;;;8.65;5.35;;;22.90;98.70;;;;;;5056749;28;20037;-76
2022/09/05 08:22:52;;;;;;;6.97;3.95;;;22.90;98.80;;;;;;5056865;28;20106;-76
2022/09/05 08:25:24;;;;;;;3.60;3.30;;;22.90;98.00;;;;;;5060569;28;20048;-76
2022/09/05 08:28:06;;;;;;;7.65;3.03;;;22.90;97.60;;;;;;5060583;28;20021;-76
2022/09/05 08:30:44;;;;;;;7.47;3.53;;;23.00;97.20;;;;;;5056343;28;20519;-76
2022/09/05 08:33:33;;;;;;;3.88;3.38;;;23.00;97.10;;;;;;5059854;28;20049;-75
2022/09/05 08:36:29;;;;;;;5.78;3.30;;;23.00;97.00;;;;;;5060408;28;20131;-77
2022/09/05 08:38:59;;;;;;;4.07;3.22;;;23.10;96.80;;;;;;5063777;28;20021;-76
2022/09/05 08:41:43;;;;;;;3.45;2.80;;;23.20;96.40;;;;;;5062255;28;20032;-76
2022/09/05 08:44:31;;;;;;;5.05;3.13;;;23.30;96.50;;;;;;5057850;28;20040;-76
2022/09/05 08:47:25;;;;;;;6.00;3.08;;;23.40;96.70;;;;;;5056028;28;20496;-75
2022/09/05 08:50:09;;;;;;;6.28;3.17;;;23.50;96.70;;;;;;5052790;28;20037;-76
2022/09/05 08:53:08;;;;;;;3.95;2.97;;;23.60;96.20;;;;;;5056083;28;20029;-75
2022/09/05 08:56:00;;;;;;;6.65;3.28;;;23.70;95.90;;;;;;5056478;28;20029;-76
2022/09/05 08:58:44;;;;;;;4.03;2.75;;;23.70;95.80;;;;;;5055501;28;20032;-76
2022/09/05 09:01:27;;;;;;;7.88;2.47;;;23.80;95.20;;;;;;5056008;28;20021;-76
2022/09/05 09:04:17;;;;;;;6.38;2.50;;;23.80;95.40;;;;;;5055564;28;20041;-76
2022/09/05 09:06:56;;;;;;;3.70;2.60;;;23.90;95.10;;;;;;5055963;28;20032;-75
2022/09/05 09:09:53;;;;;;;4.18;2.88;;;24.00;94.90;;;;;;5056123;28;20104;-75
2022/09/05 09:12:49;;;;;;;6.43;3.05;;;24.20;94.80;;;;;;5055024;28;20040;-76
2022/09/05 09:15:43;;;;;;;6.90;2.60;;;24.20;94.50;;;;;;5056445;28;20033;-75
2022/09/05 09:18:13;;;;;;;2.65;2.30;;;24.40;94.50;;;;;;5055519;28;20033;-76
2022/09/05 09:20:57;;;;;;;5.13;2.50;;;24.50;94.10;;;;;;5055686;28;20080;-75
2022/09/05 09:23:51;;;;;;;5.25;2.00;;;24.60;93.70;;;;;;5056451;28;20033;-76
2022/09/05 09:26:41;;;;;;;5.88;1.80;;;24.80;93.00;;;;;;5054669;28;20035;-76
2022/09/05 09:29:09;;;;;;;7.77;2.40;;;24.90;92.60;;;;;;5055611;28;20028;-76
2022/09/05 09:31:53;;;;;;;4.65;2.17;;;25.00;92.80;;;;;;5055356;28;20121;-75
2022/09/05 09:34:24;;;;;;;4.78;2.30;;;25.10;92.80;;;;;;5055131;28;20579;-76
2022/09/05 09:37:18;;;;;;;4.55;1.95;;;25.20;92.70;;;;;;5055176;28;20043;-75
2022/09/05 09:40:16;;;;;;;7.18;2.28;;;25.30;92.70;;;;;;5054505;28;20603;-77
2022/09/05 09:43:41;;;;;;;6.40;2.15;;;25.40;92.40;;;;;;5055302;28;20092;-77
2022/09/05 09:46:40;;;;;;;4.60;2.25;;;25.60;92.00;;;;;;5032227;28;20444;-77
2022/09/05 09:49:14;;;;;;;5.47;2.35;;;25.70;91.80;;;;;;5033211;28;20036;-77
2022/09/05 09:52:05;;;;;;;9.43;2.15;;;25.80;91.60;;;;;;5049345;28;20041;-77
2022/09/05 09:55:18;;;;;;;5.95;2.53;;;25.90;91.70;;;;;;5054116;28;20037;-76
2022/09/05 09:58:03;;;;;;;4.10;2.10;;;26.00;91.50;;;;;;5054614;28;20031;-76
2022/09/05 10:01:04;;;;;;;4.93;2.00;;;26.20;90.80;;;;;;5054592;28;20036;-76
2022/09/05 10:03:36;;;;;;;7.40;1.90;;;26.30;90.30;;;;;;5054822;28;20036;-76
2022/09/05 10:06:47;;;;;;;8.05;1.88;;;26.40;90.10;;;;;;5054953;28;20036;-76
2022/09/05 10:09:42;;;;;;;5.88;1.80;;;26.50;89.80;;;;;;5054491;28;20070;-76
2022/09/05 10:12:26;;;;;;;14.05;1.92;;;26.60;88.40;;;;;;5055375;28;20036;-76
2022/09/05 10:14:57;;;;;;;7.47;2.10;;;26.80;89.00;;;;;;5054067;28;20404;-77
2022/09/05 10:17:51;;;;;;;3.67;1.63;;;26.90;87.30;;;;;;5054659;28;20020;-75
2022/09/05 10:20:38;;;;;;;3.67;1.42;;;27.10;87.10;;;;;;5054076;28;20032;-76
2022/09/05 10:23:31;;;;;;;4.00;2.00;;;27.10;87.60;;;;;;5053780;28;20083;-77
2022/09/05 10:26:24;;;;;;;3.33;2.08;;;27.20;86.80;;;;;;5054549;28;20033;-77
2022/09/05 10:29:13;;;;;;;3.10;1.60;;;27.30;86.00;;;;;;5053882;28;20036;-78
2022/09/05 10:32:07;;;;;;;3.10;2.05;;;27.40;86.30;;;;;;5054562;28;20040;-77
2022/09/05 10:35:05;;;;;;;5.45;1.60;;;27.50;85.90;;;;;;5054658;28;20025;-76
2022/09/05 10:37:51;;;;;;;2.15;1.52;;;27.60;84.70;;;;;;5053690;28;20094;-76
2022/09/05 10:40:25;;;;;;;4.35;1.65;;;27.80;83.30;;;;;;5054713;28;20025;-76
2022/09/05 10:42:53;;;;;;;6.10;1.50;;;27.90;83.60;;;;;;5053655;28;20086;-75
2022/09/05 10:45:33;;;;;;;6.28;1.60;;;27.90;83.50;;;;;;5054160;28;20033;-76
2022/09/05 10:48:10;;;;;;;;;;;27.80;83.10;;;;;;5054700;28;20052;-76
2022/09/05 10:50:41;;;;;;;5.10;1.67;;;27.70;82.20;;;;;;5053635;28;19905;-76
2022/09/05 10:53:29;;;;;;;7.47;1.85;;;27.70;81.70;;;;;;5054084;28;20021;-76
2022/09/05 10:56:21;;;;;;;6.72;1.60;;;27.60;81.70;;;;;;5054090;28;20029;-77
2022/09/05 10:58:49;;;;;;;4.65;1.63;;;27.60;81.40;;;;;;5053978;28;20139;-76
2022/09/05 11:01:24;;;;;;;2.50;1.25;;;27.60;82.00;;;;;;5053990;28;20033;-76
2022/09/05 11:04:11;;;;;;;2.08;1.60;;;27.70;81.80;;;;;;5053242;28;20021;-76
2022/09/05 11:06:55;;;;;;;2.72;1.27;;;27.90;82.10;;;;;;5054047;28;20431;-77
2022/09/05 11:09:42;;;;;;;6.80;1.08;;;28.00;81.00;;;;;;5053681;28;20025;-77
2022/09/05 11:12:31;;;;;;;5.07;1.77;;;28.10;80.00;;;;;;5053061;28;20493;-77
2022/09/05 11:15:42;;;;;;;1.38;1.27;;;28.30;79.40;;;;;;5053472;28;20033;-77
2022/09/05 11:18:16;;;;;;;4.85;1.50;;;28.40;79.70;;;;;;5042451;28;20484;-77
2022/09/05 11:21:07;;;;;;;3.17;1.20;;;28.50;78.90;;;;;;5053671;28;20051;-77
2022/09/05 11:23:46;;;;;;;2.15;1.30;;;28.60;78.50;;;;;;5053651;28;20037;-76
2022/09/05 11:26:29;;;;;;;3.17;1.40;;;28.70;78.30;;;;;;5053125;28;20480;-76
2022/09/05 11:29:11;;;;;;;1.55;1.33;;;28.70;78.50;;;;;;5053677;28;20469;-76
2022/09/05 11:31:52;;;;;;;2.08;1.50;;;28.60;79.00;;;;;;5054327;28;20057;-78
2022/09/05 11:34:26;;;;;;;2.58;1.30;;;28.60;79.10;;;;;;5057704;28;20021;-78
2022/09/05 11:36:57;;;;;;;2.97;1.58;;;28.70;79.20;;;;;;5057376;28;20041;-77
2022/09/05 11:40:21;;;;;;;2.30;1.30;;;28.60;79.20;;;;;;5056754;28;20031;-77
2022/09/05 11:43:14;;;;;;;2.58;1.60;;;28.70;79.20;;;;;;5040408;28;20128;-75
2022/09/05 11:46:15;;;;;;;10.43;1.90;;;28.80;79.70;;;;;;5057096;28;20389;-76
2022/09/05 11:49:11;;;;;;;1.88;1.67;;;28.90;79.10;;;;;;5057941;28;20086;-75
2022/09/05 11:52:33;;;;;;;1.48;1.38;;;29.00;78.50;;;;;;5058089;28;20040;-76
2022/09/05 11:55:18;;;;;;;11.65;1.90;;;29.00;77.60;;;;;;5044494;28;20074;-77
2022/09/05 11:58:08;;;;;;;6.43;1.88;;;29.10;77.20;;;;;;5057277;28;20044;-77
2022/09/05 12:00:46;;;;;;;2.10;1.35;;;29.20;77.40;;;;;;5056384;28;20385;-77
2022/09/05 12:03:26;;;;;;;5.75;1.70;;;29.30;77.50;;;;;;5057165;28;20366;-77
2022/09/05 12:05:58;;;;;;;;;;;29.30;77.90;;;;;;5057602;28;20033;-76
2022/09/05 12:08:40;;;;;;;3.95;1.55;;;29.40;77.90;;;;;;5057524;28;20340;-76
2022/09/05 12:11:28;;;;;;;9.70;2.08;;;29.50;77.60;;;;;;5057374;28;20103;-77
2022/09/05 12:14:10;;;;;;;3.78;1.83;;;29.60;77.10;;;;;;5056548;28;20031;-76
2022/09/05 12:16:54;;;;;;;4.43;1.80;;;29.70;76.30;;;;;;5056613;28;20029;-76
2022/09/05 12:19:27;;;;;;;4.43;1.23;;;29.80;75.80;;;;;;5056943;28;20083;-77
2022/09/05 12:22:07;;;;;;;4.93;1.40;;;29.80;75.90;;;;;;5056017;28;20056;-76
2022/09/05 12:24:57;;;;;;;3.72;1.95;;;29.90;76.00;;;;;;5057040;28;20444;-76
2022/09/05 12:27:28;;;;;;;3.25;1.30;;;30.00;75.40;;;;;;5057233;28;20033;-77
2022/09/05 12:29:57;;;;;;;6.43;1.52;;;30.00;74.60;;;;;;5056124;28;20373;-76
2022/09/05 12:32:24;;;;;;;1.58;1.38;;;30.00;75.60;;;;;;5056811;28;20025;-76
2022/09/05 12:34:56;;;;;;;7.65;1.52;;;29.90;75.40;;;;;;5056297;28;20035;-77
2022/09/05 12:37:21;;;;;;;5.38;1.35;;;29.90;74.30;;;;;;5057116;28;20376;-76
2022/09/05 12:40:09;;;;;;;3.90;1.50;;;29.90;75.20;;;;;;5056646;28;20017;-77
2022/09/05 12:42:54;;;;;;;4.13;1.52;;;30.00;75.20;;;;;;5054263;28;20497;-77
2022/09/05 12:45:56;;;;;;;4.55;1.70;;;30.10;75.10;;;;;;5056521;28;20033;-77
2022/09/05 12:48:28;;;;;;;4.45;1.60;;;30.20;74.70;;;;;;5048738;28;20037;-77
2022/09/05 12:51:05;;;;;;;2.63;1.50;;;30.20;73.90;;;;;;5055829;28;20425;-77
2022/09/05 12:53:46;;;;;;;3.42;1.52;;;30.30;74.30;;;;;;5057255;28;20033;-77
2022/09/05 12:56:30;;;;;;;2.35;1.20;;;30.40;74.60;;;;;;5056558;28;20032;-77
2022/09/05 12:58:57;;;;;;;5.68;1.60;;;30.50;74.40;;;;;;5056101;28;20083;-77
2022/09/05 13:01:34;;;;;;;3.55;1.85;;;30.60;74.40;;;;;;5056207;28;20029;-77
2022/09/05 13:04:05;;;;;;;3.33;1.35;;;30.70;73.70;;;;;;5055478;28;20047;-76
2022/09/05 13:06:41;;;;;;;2.60;1.40;;;30.80;73.70;;;;;;5056645;28;20025;-76
2022/09/05 13:09:21;;;;;;;3.65;1.08;;;30.90;73.50;;;;;;5056688;28;20060;-76
2022/09/05 13:12:18;;;;;;;4.10;1.20;;;30.90;74.00;;;;;;5056360;28;20119;-75
2022/09/05 13:15:04;;;;;;;2.20;1.45;;;30.80;72.40;;;;;;5057554;28;20109;-77
2022/09/05 13:17:38;;;;;;;1.48;1.35;;;30.50;72.20;;;;;;5059751;28;20052;-76
2022/09/05 13:20:32;;;;;;;1.63;1.40;;;30.30;73.20;;;;;;5062807;28;20021;-78
2022/09/05 13:23:20;;;;;;;1.85;1.40;;;30.20;74.10;;;;;;5064117;28;20044;-76
2022/09/05 13:26:07;;;;;;;3.28;1.38;;;30.10;73.20;;;;;;5060906;28;20067;-76
2022/09/05 13:28:55;;;;;;;1.52;1.25;;;30.10;73.40;;;;;;5065671;28;20055;-76
2022/09/05 13:31:42;;;;;;;3.13;1.20;;;30.00;73.20;;;;;;5070085;28;20098;-79
2022/09/05 13:34:23;;;;;;;1.92;1.40;;;30.00;73.70;;;;;;5069883;28;20034;-78
2022/09/05 13:37:09;;;;;;;3.05;1.17;;;30.00;73.10;;;;;;5064744;28;20155;-76
2022/09/05 13:39:51;;;;;;;3.13;1.40;;;30.00;74.20;;;;;;5055152;28;20047;-75
2022/09/05 13:42:24;;;;;;;2.97;1.30;;;30.10;73.30;;;;;;5055725;28;20021;-77
2022/09/05 13:44:57;;;;;;;2.63;1.48;;;30.20;73.00;;;;;;5055137;28;20154;-76
2022/09/05 13:47:57;;;;;;;1.65;1.25;;;30.30;73.30;;;;;;5054678;28;20029;-76
2022/09/05 13:50:42;;;;;;;2.90;1.40;;;30.40;73.50;;;;;;5043344;28;20029;-76
2022/09/05 13:53:35;;;;;;;3.53;1.25;;;30.60;74.00;;;;;;5053970;28;20074;-77
2022/09/05 13:56:20;;;;;;;1.98;1.15;;;30.60;74.30;;;;;;5054295;28;20020;-77
2022/09/05 13:59:05;;;;;;;2.95;1.15;;;30.90;73.60;;;;;;5054854;28;20060;-77
2022/09/05 14:02:04;;;;;;;1.65;1.20;;;31.00;74.00;;;;;;5053950;28;20393;-75
2022/09/05 14:04:56;;;;;;;2.53;1.30;;;31.20;73.70;;;;;;5054552;28;20080;-76
2022/09/05 14:07:43;;;;;;;2.33;1.23;;;31.30;73.30;;;;;;5054037;28;20025;-77